• Join FlightAware (Why Join?)
  • Login
  • US Flag 
10:14PM EDT


 

Airport Tracker/Info


-or-


 

Live Flight TrackerFlight Track Log ✈ ASQ5745 ✈ 11-Jul-2013 ✈ KIAD - KALB

Flight Track Log - Related Links

Times and Time Zones

All times are in EDT time to prevent confusion due to time zone crossing. See the ASQ5745 flight status page for this flight to view local times or setup timezone preferences in your user account.

Time Position Orientation Groundspeed Altitude Reporting Facility
EDT Latitude Longitude Course Direction KTS MPH feet Rate Location/Type
08:25AM 38.9667 -77.5333 North 185 213 2,100  Level Potomac TRACON
08:25AM 38.9833 -77.6167 284° West 248 285 4,000 2,100 Climbing Potomac TRACON
08:27AM 39.3218 -77.4500 North  Level FlightAware Approximate
08:28AM 39.4189 -77.4500 North  Level FlightAware Approximate
08:28AM 39.1467 -77.6017 North 281 323 9,200  Level Washington Center
08:29AM 39.5160 -77.4500 North  Level FlightAware Approximate
08:29AM 39.2264 -77.5769 14° North 281 323 11,200  Level Washington Center
08:30AM 39.6131 -77.4500 North  Level FlightAware Approximate
08:30AM 39.3122 -77.5525 12° North 288 331 12,400  Level Washington Center
08:32AM 39.5067 -77.4986 12° North 389 448 14,600 1,200 Climbing New York Center
08:33AM 39.6067 -77.4650 15° North 373 429 15,900 1,260 Climbing New York Center
08:34AM 39.7114 -77.4533 North 364 419 17,200 1,020 Climbing New York Center
08:35AM 39.8200 -77.4528 360° North 377 434 18,000 900 Climbing New York Center
08:36AM 39.9161 -77.4511 North 382 440 19,000 900 Climbing New York Center
08:37AM 40.0369 -77.4519 360° North 387 445 19,800 660 Climbing New York Center
08:38AM 40.1503 -77.4356 North 392 451 20,400 540 Climbing New York Center
08:39AM 40.2561 -77.3722 25° Northeast 393 452 20,900 480 Climbing New York Center
08:40AM 40.3661 -77.3064 25° Northeast 410 472 21,400 420 Climbing New York Center
08:41AM 40.4614 -77.2444 26° Northeast 422 486 21,800 480 Climbing New York Center
08:42AM 40.5733 -77.1758 25° Northeast 432 497 22,400 600 Climbing New York Center
08:43AM 40.6833 -77.1067 25° Northeast 438 504 23,100 840 Climbing New York Center
08:44AM 40.7936 -77.0344 26° Northeast 438 504 24,100 960 Climbing New York Center
08:45AM 40.9014 -76.9647 26° Northeast 438 504 25,100 840 Climbing New York Center
08:46AM 41.0069 -76.9003 25° Northeast 432 497 25,800 540 Climbing New York Center
08:47AM 41.1169 -76.8275 26° Northeast 432 497 26,300 480 Climbing New York Center
08:48AM 41.2289 -76.7575 25° Northeast 432 497 26,800 300 Climbing New York Center
08:49AM 41.3386 -76.6842 27° Northeast 438 504 27,000 60 Climbing New York Center
08:50AM 41.4658 -76.6014 26° Northeast 443 510 27,000  Level New York Center
08:51AM 41.5842 -76.5228 26° Northeast 449 517 27,000  Level New York Center
08:52AM 41.7022 -76.4469 26° Northeast 459 528 27,000  Level New York Center
08:53AM 41.7906 -76.3850 28° Northeast 464 534 27,000 -180 Level New York Center
08:54AM 41.9303 -76.2936 26° Northeast 464 534 26,700 -1,020 Descending New York Center
08:56AM 42.1572 -76.1233 29° Northeast 490 564 24,000 -840 Descending Boston Center
08:57AM 42.2300 -75.9286 63° Northeast 468 539 24,000  Level Boston Center
08:58AM 42.3028 -75.7275 64° Northeast 461 531 24,000 -900 Level Boston Center
08:59AM 42.3575 -75.5589 66° East 466 536 22,300 -1,860 Descending Boston Center
09:00AM 42.4036 -75.3981 69° East 466 536 20,300 -2,040 Descending Boston Center
09:01AM 42.4119 -75.2297 86° East 453 521 18,300 -2,040 Descending Boston Center
09:02AM 42.4158 -75.0669 88° East 443 510 16,300 -2,040 Descending Boston Center
09:03AM 42.4233 -74.9208 86° East 438 504 14,300 -2,160 Descending Boston Center
09:04AM 42.4303 -74.7917 86° East 413 475 12,600 -2,280 Descending Boston Center
09:05AM 42.4342 -74.6961 87° East 403 464 11,300 -1,200 Descending Boston Center
09:05AM 42.4361 -74.6033 88° East 405 466 11,100 -180 Descending Boston Center
09:06AM 42.4508 -74.4772 81° East 388 447 11,100 -360 Level Boston Center
09:07AM 42.4722 -74.3317 79° East 369 425 10,400 -1,080 Descending Boston Center
09:08AM 42.4883 -74.2281 78° East 332 382 9,000 -1,800 Descending Boston Center
09:09AM 42.5069 -74.1103 78° East 308 354 6,800 -2,100 Descending Boston Center
09:10AM 42.5208 -74.0175 78° East 280 322 4,900 -1,740 Descending Boston Center
09:11AM 42.5361 -73.9617 70° East 257 296 4,200 -1,200 Descending Boston Center
09:12AM 42.5642 -73.8947 60° Northeast 232 267 3,300 -960 Descending Boston Center
09:12AM 42.5853 -73.8614 49° Northeast 233 268 2,800 -780 Descending Boston Center
09:13AM 42.6275 -73.8172 38° Northeast 216 249 2,000 -660 Descending Boston Center
09:15AM 42.6922 -73.8072 North 136 157 1,200 -660 Descending Boston Center
09:16AM 42.7339 -73.8081 359° North 134 154 400 -840 Descending Boston Center
09:20AM 42.7333 -73.8000 75° East  Level FlightAware Approximate